createdAt,value
2023-11-17T00:00:33.925Z,80.84
2023-11-17T00:03:22.609Z,80.96
2023-11-17T00:05:53.227Z,81.01
2023-11-17T00:08:22.079Z,80.63
2023-11-17T00:10:50.501Z,80.16
2023-11-17T00:13:18.764Z,80.06
2023-11-17T00:15:47.373Z,79.78
2023-11-17T00:18:16.142Z,79.47
2023-11-17T00:20:44.219Z,79.19
2023-11-17T00:23:12.556Z,79.07
2023-11-17T00:25:40.704Z,79.48
2023-11-17T00:28:08.843Z,79.23
2023-11-17T00:30:36.843Z,79.07
2023-11-17T00:33:04.889Z,78.89
2023-11-17T00:35:32.940Z,78.92
2023-11-17T00:38:00.938Z,79.05
2023-11-17T00:40:28.910Z,79.32
2023-11-17T00:42:57.022Z,79.27
2023-11-17T00:45:25.757Z,79.14
2023-11-17T00:47:54.215Z,79.26
2023-11-17T00:50:23.896Z,79.40
2023-11-17T00:52:53.672Z,79.38
2023-11-17T00:55:22.303Z,79.36
2023-11-17T00:57:50.421Z,79.40
2023-11-17T01:00:18.772Z,79.45
2023-11-17T01:02:47.987Z,79.50
2023-11-17T01:05:16.169Z,79.58
2023-11-17T01:07:44.270Z,79.72
2023-11-17T01:10:12.574Z,79.58
2023-11-17T01:12:40.758Z,79.43
2023-11-17T01:15:09.501Z,79.53
2023-11-17T01:17:37.705Z,79.39
2023-11-17T01:20:08.778Z,79.62
2023-11-17T01:22:37.147Z,79.61
2023-11-17T01:25:16.001Z,79.59
2023-11-17T01:27:45.705Z,79.79
2023-11-17T01:30:14.315Z,79.53
2023-11-17T01:32:42.293Z,79.85
2023-11-17T01:35:10.758Z,80.19
2023-11-17T01:37:38.914Z,80.26
2023-11-17T01:40:07.350Z,80.20
2023-11-17T01:42:38.392Z,79.94
2023-11-17T01:45:10.200Z,80.17
2023-11-17T01:47:40.836Z,80.21
2023-11-17T01:50:13.354Z,80.37
2023-11-17T01:52:44.572Z,80.42
2023-11-17T01:55:13.646Z,80.33
2023-11-17T01:57:41.945Z,80.51
2023-11-17T02:00:20.607Z,80.37
2023-11-17T02:02:52.772Z,80.51
2023-11-17T02:05:26.109Z,80.49
2023-11-17T02:08:42.282Z,80.42
2023-11-17T02:11:21.989Z,80.67
2023-11-17T02:14:07.440Z,80.90
2023-11-17T02:16:37.580Z,81.27
2023-11-17T02:19:29.073Z,81.32
2023-11-17T02:22:00.185Z,81.58
2023-11-17T02:24:32.443Z,81.57
2023-11-17T02:27:27.103Z,81.54
2023-11-17T02:30:04.206Z,81.57
2023-11-17T02:32:39.920Z,81.85
2023-11-17T02:35:09.752Z,81.63
2023-11-17T02:37:40.033Z,81.61
2023-11-17T02:40:20.301Z,81.69
2023-11-17T02:42:54.538Z,81.84
2023-11-17T02:45:26.418Z,81.69
2023-11-17T02:47:57.714Z,81.66
2023-11-17T02:50:33.276Z,81.74
2023-11-17T02:53:18.755Z,81.78
2023-11-17T02:55:48.693Z,81.77
2023-11-17T02:58:18.330Z,81.76
2023-11-17T03:00:53.298Z,81.42
2023-11-17T03:03:24.693Z,81.46
2023-11-17T03:06:00.655Z,81.76
2023-11-17T03:08:28.980Z,82.00
2023-11-17T03:11:02.078Z,82.18
2023-11-17T03:13:33.826Z,82.41
2023-11-17T03:16:01.983Z,82.11
2023-11-17T03:18:32.125Z,82.08
2023-11-17T03:21:03.186Z,81.90
2023-11-17T03:23:34.069Z,81.74
2023-11-17T03:26:02.214Z,81.64
2023-11-17T03:28:30.472Z,81.54
2023-11-17T03:30:58.627Z,80.97
2023-11-17T03:33:30.917Z,80.41
2023-11-17T03:35:59.095Z,80.10
2023-11-17T03:38:27.856Z,79.81
2023-11-17T03:40:56.694Z,79.51
2023-11-17T03:43:24.667Z,79.50
2023-11-17T03:45:54.127Z,79.14
2023-11-17T03:48:23.758Z,78.90
2023-11-17T03:50:52.376Z,79.00
2023-11-17T03:53:20.369Z,78.92
2023-11-17T03:55:48.379Z,78.92
2023-11-17T03:58:16.815Z,78.80
2023-11-17T04:00:50.259Z,78.66
2023-11-17T04:03:19.380Z,78.52
2023-11-17T04:05:47.622Z,78.17
2023-11-17T04:08:18.381Z,78.11
2023-11-17T04:10:47.808Z,78.22
2023-11-17T04:13:16.464Z,77.88
2023-11-17T04:15:45.147Z,77.87
2023-11-17T04:18:13.372Z,77.98
2023-11-17T04:20:41.531Z,77.94
2023-11-17T04:23:09.843Z,77.89
2023-11-17T04:25:37.950Z,77.57
2023-11-17T04:28:06.196Z,77.32
2023-11-17T04:30:35.164Z,77.15
2023-11-17T04:33:03.301Z,77.12
2023-11-17T04:35:31.821Z,77.08
2023-11-17T04:38:00.010Z,76.92
2023-11-17T04:40:28.469Z,76.65
2023-11-17T04:42:56.533Z,76.42
2023-11-17T04:45:26.729Z,76.57
2023-11-17T04:47:54.729Z,76.53
2023-11-17T04:50:23.029Z,76.67
2023-11-17T04:52:51.150Z,76.65
2023-11-17T04:55:19.176Z,76.76
2023-11-17T04:57:47.313Z,77.02
2023-11-17T05:00:18.316Z,77.01
2023-11-17T05:02:47.829Z,76.75
2023-11-17T05:05:19.003Z,76.47
2023-11-17T05:07:49.926Z,76.38
2023-11-17T05:10:21.748Z,76.27
2023-11-17T05:12:50.908Z,76.23
2023-11-17T05:15:21.706Z,76.14
2023-11-17T05:17:50.092Z,75.92
2023-11-17T05:20:23.969Z,75.53
2023-11-17T05:22:56.130Z,75.45
2023-11-17T05:25:25.363Z,75.76
2023-11-17T05:27:53.659Z,75.86
2023-11-17T05:30:21.895Z,75.85
2023-11-17T05:32:50.364Z,75.92
2023-11-17T05:35:19.382Z,75.75
2023-11-17T05:37:47.337Z,75.48
2023-11-17T05:40:15.744Z,75.56
2023-11-17T05:42:43.873Z,75.52
2023-11-17T05:45:16.089Z,75.61
2023-11-17T05:47:44.996Z,75.84
2023-11-17T05:50:13.598Z,75.84
2023-11-17T05:52:42.934Z,75.81
2023-11-17T05:55:17.968Z,75.75
2023-11-17T05:57:46.307Z,75.68
2023-11-17T06:00:20.482Z,75.96
2023-11-17T06:02:49.520Z,75.93
2023-11-17T06:05:17.678Z,75.99
2023-11-17T06:07:45.990Z,75.88
2023-11-17T06:10:14.742Z,75.55
2023-11-17T06:12:43.016Z,75.42
2023-11-17T06:15:16.033Z,75.54
2023-11-17T06:17:48.921Z,75.85
2023-11-17T06:20:17.873Z,76.02
2023-11-17T06:22:45.885Z,76.06
2023-11-17T06:25:14.272Z,76.09
2023-11-17T06:27:42.489Z,76.13
2023-11-17T06:30:11.927Z,76.01
2023-11-17T06:32:40.056Z,76.01
2023-11-17T06:35:08.707Z,76.15
2023-11-17T06:37:38.599Z,76.08
2023-11-17T06:40:11.507Z,75.72
2023-11-17T06:42:42.473Z,75.43
2023-11-17T06:45:13.030Z,75.42
2023-11-17T06:47:44.848Z,75.53
2023-11-17T06:50:13.597Z,75.79
2023-11-17T06:52:43.053Z,75.39
2023-11-17T06:55:12.218Z,75.20
2023-11-17T06:57:44.495Z,75.19
2023-11-17T07:00:14.289Z,75.17
2023-11-17T07:02:42.601Z,75.09
2023-11-17T07:05:12.354Z,75.04
2023-11-17T07:07:41.293Z,74.63
2023-11-17T07:10:16.275Z,74.63
2023-11-17T07:12:46.272Z,75.03
2023-11-17T07:15:17.366Z,75.10
2023-11-17T07:17:47.578Z,74.74
2023-11-17T07:20:16.081Z,74.59
2023-11-17T07:22:44.082Z,74.56
2023-11-17T07:25:12.759Z,74.69
2023-11-17T07:27:41.343Z,74.88
2023-11-17T07:30:14.265Z,74.67
2023-11-17T07:32:43.974Z,74.46
2023-11-17T07:35:12.940Z,74.25
2023-11-17T07:37:41.357Z,74.13
2023-11-17T07:40:12.610Z,73.42
2023-11-17T07:42:41.167Z,73.35
2023-11-17T07:45:12.910Z,73.12
2023-11-17T07:47:42.851Z,73.00
2023-11-17T07:50:20.522Z,72.99
2023-11-17T07:52:48.835Z,73.04
2023-11-17T07:55:17.295Z,72.94
2023-11-17T07:57:45.554Z,72.85
2023-11-17T08:00:20.551Z,73.33
2023-11-17T08:02:48.783Z,73.87
2023-11-17T08:05:16.954Z,73.82
2023-11-17T08:07:45.623Z,73.56
2023-11-17T08:10:14.772Z,73.06
2023-11-17T08:12:42.932Z,73.21
2023-11-17T08:15:10.981Z,73.39
2023-11-17T08:17:39.395Z,73.39
2023-11-17T08:20:15.792Z,73.53
2023-11-17T08:22:45.476Z,73.54
2023-11-17T08:25:14.003Z,73.65
2023-11-17T08:27:43.365Z,73.24
2023-11-17T08:30:11.879Z,73.21
2023-11-17T08:32:44.323Z,73.08
2023-11-17T08:35:16.372Z,73.30
2023-11-17T08:37:46.313Z,73.41
2023-11-17T08:40:17.519Z,73.31
2023-11-17T08:42:46.519Z,73.22
2023-11-17T08:45:16.306Z,73.20
2023-11-17T08:47:47.401Z,72.73
2023-11-17T08:50:15.845Z,72.12
2023-11-17T08:52:46.888Z,71.76
2023-11-17T08:55:16.243Z,71.30
2023-11-17T08:57:45.950Z,71.23
2023-11-17T09:00:15.816Z,71.04
2023-11-17T09:02:47.597Z,70.90
2023-11-17T09:05:16.624Z,70.52
2023-11-17T09:07:52.587Z,70.09
2023-11-17T09:10:23.201Z,69.73
2023-11-17T09:12:51.717Z,69.12
2023-11-17T09:15:21.628Z,68.77
2023-11-17T09:17:53.495Z,68.74
2023-11-17T09:20:24.690Z,68.56
2023-11-17T09:22:54.311Z,68.25
2023-11-17T09:25:24.837Z,67.94
2023-11-17T09:28:00.740Z,68.33
2023-11-17T09:30:34.631Z,68.22
2023-11-17T09:33:04.666Z,67.44
2023-11-17T09:35:33.741Z,67.10
2023-11-17T09:38:03.391Z,66.68
2023-11-17T09:40:35.302Z,66.81
2023-11-17T09:43:16.745Z,66.66
2023-11-17T09:45:48.583Z,66.04
2023-11-17T09:48:18.295Z,65.71
2023-11-17T09:50:46.807Z,65.93
2023-11-17T09:53:16.262Z,66.13
2023-11-17T09:55:46.154Z,65.50
2023-11-17T09:58:15.287Z,65.29
2023-11-17T10:00:47.492Z,65.17
2023-11-17T10:03:20.753Z,65.22
2023-11-17T10:05:51.638Z,64.98
2023-11-17T10:08:24.481Z,64.89
2023-11-17T10:10:52.562Z,65.04
2023-11-17T10:13:25.436Z,65.11
2023-11-17T10:15:59.550Z,64.88
2023-11-17T10:18:31.246Z,64.62
2023-11-17T10:20:59.366Z,64.33
2023-11-17T10:23:28.504Z,64.40
2023-11-17T10:25:57.538Z,64.45
2023-11-17T10:28:28.184Z,64.33
2023-11-17T10:31:06.364Z,64.14
2023-11-17T10:33:36.543Z,63.87
2023-11-17T10:36:17.045Z,63.86
2023-11-17T10:38:47.467Z,63.99
2023-11-17T10:41:31.485Z,64.08
2023-11-17T10:44:02.518Z,63.79
2023-11-17T10:46:37.008Z,63.89
2023-11-17T10:49:06.625Z,63.44
2023-11-17T10:51:46.370Z,63.41
2023-11-17T10:54:15.271Z,63.60
2023-11-17T10:56:52.087Z,63.86
2023-11-17T10:59:20.711Z,64.06
2023-11-17T11:01:52.768Z,63.92
2023-11-17T11:04:27.473Z,63.85
2023-11-17T11:06:57.540Z,63.80
2023-11-17T11:09:36.031Z,64.11
2023-11-17T11:12:07.849Z,64.29
2023-11-17T11:14:40.830Z,64.42
2023-11-17T11:17:13.736Z,64.35
2023-11-17T11:19:57.662Z,64.11
2023-11-17T11:22:33.206Z,64.29
2023-11-17T11:25:06.874Z,64.42
2023-11-17T11:27:37.112Z,64.53
2023-11-17T11:30:09.352Z,64.40
2023-11-17T11:32:39.084Z,64.43
2023-11-17T11:35:07.757Z,64.71
2023-11-17T11:37:36.136Z,64.96
2023-11-17T11:40:05.669Z,64.81
2023-11-17T11:42:35.097Z,64.94
2023-11-17T11:45:05.702Z,65.22
2023-11-17T11:47:33.859Z,65.05
2023-11-17T11:50:02.124Z,64.24
2023-11-17T11:52:36.603Z,63.75
2023-11-17T11:55:07.941Z,63.76
2023-11-17T11:57:36.279Z,63.77
2023-11-17T12:00:14.669Z,63.54
2023-11-17T12:02:59.719Z,63.49
2023-11-17T12:05:37.745Z,63.77
2023-11-17T12:08:23.814Z,63.32
2023-11-17T12:10:59.062Z,63.22
2023-11-17T12:13:52.309Z,63.18
2023-11-17T12:16:40.741Z,63.04
2023-11-17T12:19:10.212Z,63.07
2023-11-17T12:21:42.443Z,62.71
2023-11-17T12:24:13.871Z,63.19
2023-11-17T12:26:45.782Z,63.15
2023-11-17T12:29:34.306Z,63.06
2023-11-17T12:32:08.951Z,63.02
2023-11-17T12:34:43.769Z,62.93
2023-11-17T12:37:14.535Z,63.44
2023-11-17T12:39:46.114Z,63.61
2023-11-17T12:42:20.421Z,63.98
2023-11-17T12:44:48.908Z,63.69
2023-11-17T12:47:25.757Z,63.32
2023-11-17T12:50:00.651Z,62.49
2023-11-17T12:52:29.552Z,62.77
2023-11-17T12:55:08.339Z,63.13
2023-11-17T12:57:37.877Z,63.26
2023-11-17T13:00:15.233Z,63.16
2023-11-17T13:02:44.545Z,63.20
2023-11-17T13:05:13.472Z,62.86
2023-11-17T13:07:43.560Z,63.10
2023-11-17T13:10:12.974Z,63.07
2023-11-17T13:12:41.878Z,62.90
2023-11-17T13:15:11.164Z,63.11
2023-11-17T13:17:39.481Z,63.07
2023-11-17T13:20:15.479Z,63.04
2023-11-17T13:22:44.469Z,63.51
2023-11-17T13:25:13.290Z,63.65
2023-11-17T13:27:44.528Z,63.78
2023-11-17T13:30:15.365Z,64.11
2023-11-17T13:32:58.349Z,64.27
2023-11-17T13:35:29.279Z,64.30
2023-11-17T13:38:05.073Z,64.86
2023-11-17T13:40:35.580Z,65.53
2023-11-17T13:43:11.443Z,66.27
2023-11-17T13:45:40.920Z,66.32
2023-11-17T13:48:12.121Z,66.73
2023-11-17T13:50:40.844Z,66.99
2023-11-17T13:53:12.296Z,66.72
2023-11-17T13:55:40.891Z,66.35
2023-11-17T13:58:10.099Z,66.13
2023-11-17T14:00:38.191Z,66.12
2023-11-17T14:03:06.395Z,65.68
2023-11-17T14:05:34.843Z,65.50
2023-11-17T14:08:03.102Z,65.07
2023-11-17T14:10:31.997Z,64.98
2023-11-17T14:13:00.362Z,65.42
2023-11-17T14:15:28.630Z,65.52
2023-11-17T14:17:56.953Z,65.34
2023-11-17T14:20:26.095Z,65.47
2023-11-17T14:22:54.582Z,65.51
2023-11-17T14:25:25.739Z,66.19
2023-11-17T14:27:54.444Z,66.57
2023-11-17T14:30:26.837Z,66.87
2023-11-17T14:32:55.016Z,67.12
2023-11-17T14:35:26.657Z,66.92
2023-11-17T14:37:56.315Z,67.12
2023-11-17T14:40:26.786Z,67.13
2023-11-17T14:43:00.078Z,67.18
2023-11-17T14:45:28.352Z,67.03
2023-11-17T14:47:56.617Z,67.55
2023-11-17T14:50:24.976Z,68.02
2023-11-17T14:52:54.030Z,68.22
2023-11-17T14:55:23.964Z,68.47
2023-11-17T14:57:52.259Z,68.44
2023-11-17T15:00:24.124Z,68.65
2023-11-17T15:02:53.878Z,68.95
2023-11-17T15:05:22.543Z,69.22
2023-11-17T15:07:51.062Z,69.30
2023-11-17T15:10:21.980Z,69.38
2023-11-17T15:12:53.344Z,69.65
2023-11-17T15:15:29.479Z,70.04
2023-11-17T15:18:09.720Z,70.06
2023-11-17T15:20:37.933Z,69.68
2023-11-17T15:23:07.121Z,69.62
2023-11-17T15:25:38.541Z,69.71
2023-11-17T15:28:21.748Z,69.95
2023-11-17T15:30:56.164Z,70.30
2023-11-17T15:33:24.619Z,70.41
2023-11-17T15:35:52.655Z,70.35
2023-11-17T15:38:27.303Z,70.98
2023-11-17T15:40:58.449Z,70.95
2023-11-17T15:43:32.098Z,70.66
2023-11-17T15:46:02.045Z,70.52
2023-11-17T15:48:31.408Z,70.73
2023-11-17T15:51:04.582Z,71.01
2023-11-17T15:53:33.812Z,71.45
2023-11-17T15:56:04.139Z,72.13
2023-11-17T15:58:32.284Z,72.50
2023-11-17T16:01:04.653Z,72.38
2023-11-17T16:03:33.267Z,72.32
2023-11-17T16:06:01.593Z,72.06
2023-11-17T16:08:29.953Z,71.76
2023-11-17T16:10:57.975Z,71.86
2023-11-17T16:13:25.960Z,72.00
2023-11-17T16:15:53.957Z,71.75
2023-11-17T16:18:22.290Z,71.61
2023-11-17T16:20:50.336Z,71.86
2023-11-17T16:23:19.708Z,71.82
2023-11-17T16:25:47.736Z,72.09
2023-11-17T16:28:15.790Z,72.16
2023-11-17T16:30:43.980Z,72.31
2023-11-17T16:33:12.156Z,72.69
2023-11-17T16:35:41.102Z,72.26
2023-11-17T16:38:11.705Z,72.23
2023-11-17T16:40:40.641Z,72.27
2023-11-17T16:43:09.786Z,72.48
2023-11-17T16:45:44.376Z,72.82
2023-11-17T16:48:13.533Z,72.59
2023-11-17T16:50:43.718Z,72.56
2023-11-17T16:53:15.490Z,72.17
2023-11-17T16:55:45.532Z,72.18
2023-11-17T16:58:14.486Z,72.46
2023-11-17T17:00:46.155Z,72.63
2023-11-17T17:03:15.030Z,72.69
2023-11-17T17:05:43.961Z,72.34
2023-11-17T17:08:12.148Z,71.96
2023-11-17T17:10:41.720Z,71.96
2023-11-17T17:13:09.964Z,71.84
2023-11-17T17:15:37.996Z,72.26
2023-11-17T17:18:08.258Z,72.60
2023-11-17T17:20:39.655Z,72.70
2023-11-17T17:23:13.084Z,72.71
2023-11-17T17:25:42.312Z,73.00
2023-11-17T17:28:14.581Z,73.27
2023-11-17T17:30:43.714Z,73.85
2023-11-17T17:33:12.819Z,73.83
2023-11-17T17:35:46.769Z,73.81
2023-11-17T17:38:19.085Z,73.72
2023-11-17T17:40:47.505Z,73.90
2023-11-17T17:43:15.773Z,73.84
2023-11-17T17:45:46.695Z,73.81
2023-11-17T17:48:17.384Z,73.85
2023-11-17T17:50:45.748Z,73.76
2023-11-17T17:53:13.947Z,73.52
2023-11-17T17:55:42.073Z,73.57
2023-11-17T17:58:11.397Z,73.83
2023-11-17T18:00:41.062Z,73.94
2023-11-17T18:03:09.617Z,74.26
2023-11-17T18:05:37.937Z,74.46
2023-11-17T18:08:06.023Z,74.36
2023-11-17T18:10:34.081Z,74.80
2023-11-17T18:13:02.637Z,75.01
2023-11-17T18:15:30.684Z,75.48
2023-11-17T18:17:59.365Z,75.05
2023-11-17T18:20:28.923Z,74.94
2023-11-17T18:22:57.289Z,75.17
2023-11-17T18:25:25.926Z,75.00
2023-11-17T18:27:54.009Z,74.96
2023-11-17T18:30:24.132Z,75.23
2023-11-17T18:32:53.434Z,75.72
2023-11-17T18:35:25.017Z,76.45
2023-11-17T18:37:54.998Z,76.56
2023-11-17T18:40:30.298Z,76.70
2023-11-17T18:42:59.825Z,77.24
2023-11-17T18:45:29.867Z,77.89
2023-11-17T18:47:59.902Z,78.41
2023-11-17T18:50:29.503Z,78.68
2023-11-17T18:52:59.362Z,78.82
2023-11-17T18:55:27.652Z,78.85
2023-11-17T18:57:55.928Z,79.25
2023-11-17T19:00:29.489Z,79.83
2023-11-17T19:02:57.724Z,80.22
2023-11-17T19:05:26.199Z,80.33
2023-11-17T19:08:00.956Z,80.04
2023-11-17T19:10:31.579Z,80.16
2023-11-17T19:13:02.119Z,80.55
2023-11-17T19:15:30.167Z,80.90
2023-11-17T19:18:00.378Z,81.37
2023-11-17T19:20:28.770Z,81.64
2023-11-17T19:22:59.680Z,81.66
2023-11-17T19:25:27.897Z,81.80
2023-11-17T19:27:56.174Z,81.86
2023-11-17T19:30:33.058Z,81.72
2023-11-17T19:33:01.275Z,81.99
2023-11-17T19:35:31.430Z,82.03
2023-11-17T19:37:59.558Z,82.11
2023-11-17T19:40:27.926Z,81.69
2023-11-17T19:42:56.052Z,82.16
2023-11-17T19:45:24.237Z,82.79
2023-11-17T19:47:58.790Z,83.03
2023-11-17T19:50:26.813Z,83.13
2023-11-17T19:52:54.753Z,83.08
2023-11-17T19:55:24.519Z,82.72
2023-11-17T19:57:54.445Z,82.53
2023-11-17T20:00:27.031Z,82.91
2023-11-17T20:02:58.908Z,83.15
2023-11-17T20:05:29.638Z,83.22
2023-11-17T20:07:58.098Z,83.20
2023-11-17T20:10:31.207Z,83.55
2023-11-17T20:13:02.430Z,83.85
2023-11-17T20:15:32.044Z,84.18
2023-11-17T20:18:00.494Z,84.46
2023-11-17T20:20:29.887Z,84.77
2023-11-17T20:23:01.066Z,84.64
2023-11-17T20:25:30.740Z,84.57
2023-11-17T20:28:01.154Z,84.12
2023-11-17T20:30:30.239Z,83.55
2023-11-17T20:32:59.135Z,82.94
2023-11-17T20:35:29.314Z,82.77
2023-11-17T20:37:58.249Z,82.79
2023-11-17T20:40:26.319Z,83.35
2023-11-17T20:42:55.799Z,83.71
2023-11-17T20:45:25.281Z,83.90
2023-11-17T20:47:54.118Z,84.26
2023-11-17T20:50:26.246Z,84.70
2023-11-17T20:52:54.841Z,84.84
2023-11-17T20:55:23.788Z,85.17
2023-11-17T20:57:52.800Z,84.97
2023-11-17T21:00:25.259Z,84.80
2023-11-17T21:02:59.253Z,85.20
2023-11-17T21:05:33.648Z,85.52
2023-11-17T21:08:05.018Z,85.82
2023-11-17T21:10:34.726Z,85.75
2023-11-17T21:13:04.701Z,85.88
2023-11-17T21:15:32.632Z,85.49
2023-11-17T21:18:00.785Z,85.15
2023-11-17T21:20:29.675Z,85.37
2023-11-17T21:23:01.259Z,85.63
2023-11-17T21:25:31.487Z,85.64
2023-11-17T21:27:59.614Z,85.42
2023-11-17T21:30:29.275Z,85.58
2023-11-17T21:32:58.493Z,85.60
2023-11-17T21:35:26.711Z,85.84
2023-11-17T21:37:56.743Z,86.00
2023-11-17T21:40:26.021Z,86.37
2023-11-17T21:42:55.078Z,86.62
2023-11-17T21:45:24.359Z,86.84
2023-11-17T21:47:55.588Z,86.71
2023-11-17T21:50:25.564Z,86.77
2023-11-17T21:52:57.136Z,86.83
2023-11-17T21:55:26.218Z,86.98
2023-11-17T21:57:59.073Z,86.90
2023-11-17T22:00:30.324Z,86.82
2023-11-17T22:02:58.511Z,87.23
2023-11-17T22:05:27.805Z,87.63
2023-11-17T22:07:56.475Z,88.05
2023-11-17T22:10:24.969Z,87.97
2023-11-17T22:12:53.682Z,88.11
2023-11-17T22:15:22.000Z,87.99
2023-11-17T22:17:50.568Z,87.86
2023-11-17T22:20:21.511Z,87.94
2023-11-17T22:22:51.808Z,88.27
2023-11-17T22:25:22.397Z,88.01
2023-11-17T22:27:53.340Z,87.72
2023-11-17T22:30:25.793Z,87.60
2023-11-17T22:32:56.684Z,87.77
2023-11-17T22:35:25.608Z,87.58
2023-11-17T22:37:55.669Z,87.85
2023-11-17T22:40:25.247Z,87.86
2023-11-17T22:42:53.728Z,87.72
2023-11-17T22:45:23.184Z,87.22
2023-11-17T22:47:53.074Z,87.25
2023-11-17T22:50:23.100Z,87.35
2023-11-17T22:52:55.694Z,87.14
2023-11-17T22:55:24.426Z,87.41
2023-11-17T22:57:53.388Z,87.50
2023-11-17T23:00:36.881Z,87.70
2023-11-17T23:03:10.283Z,87.39
2023-11-17T23:05:43.359Z,87.48
2023-11-17T23:08:18.396Z,87.31
2023-11-17T23:10:46.737Z,87.61
2023-11-17T23:13:15.470Z,87.39
2023-11-17T23:15:43.681Z,87.24
2023-11-17T23:18:14.491Z,87.43
2023-11-17T23:20:43.999Z,87.60
2023-11-17T23:23:13.049Z,87.71
2023-11-17T23:25:41.720Z,87.54
2023-11-17T23:28:10.803Z,87.46
2023-11-17T23:30:41.383Z,87.43
2023-11-17T23:33:09.921Z,87.56
2023-11-17T23:35:38.783Z,87.56
2023-11-17T23:38:09.362Z,87.27
2023-11-17T23:40:37.569Z,87.41
2023-11-17T23:43:05.874Z,87.50
2023-11-17T23:45:34.036Z,87.37
2023-11-17T23:48:02.171Z,87.30
2023-11-17T23:50:30.725Z,87.62
2023-11-17T23:52:58.927Z,87.72
2023-11-17T23:55:27.801Z,87.71
2023-11-17T23:57:55.876Z,87.67
